Aveley, United Kingdom
Current Conditions -  °F | °C
As of 11:50 AM on Friday 19 Dec 2014 (Local Time) from EGLC Reporting Station
Few Clouds Few Clouds  
Wind Chill: 50°   Ceiling: Unl
Heat Index: 50°   Visibility: 6mi
Dew Point: 34°   Wind: 20mph
Humidity: 54%   Direction: 280°W
Pressure: 29.97"   Gusts: NA
Location:  51.5°N, 0.25°E
Report Text: EGLC 191150Z 28017KT 9999 FEW035 10/01 Q1015
Loading
Personal Weather Stations






























Interactive Weather Map New forecast layout! Learn more

10-Day Weather Forecast

Advertisements
Track Severe Weather on mobile